Time;durP1;ratioP1;P1;durP2;ratioP2;P2;SDS_P1;SDS_P2;PMS_P1;PMS_P2;Temp;Humidity;BMP_temperature;BMP_pressure;BME280_temperature;BME280_humidity;BME280_pressure;Samples;Min_cycle;Max_cycle;Signal;HPM_P1;HPM_P2
2022/11/09 00:00:58;;;;;;;18.30;4.20;;;;;;;;;;1826072;78;26223;-77
2022/11/09 00:03:27;;;;;;;15.40;4.10;;;;;;;;;;1790910;78;26724;-76
2022/11/09 00:05:56;;;;;;;28.40;4.75;;;;;;;;;;1823259;78;26246;-77
2022/11/09 00:08:25;;;;;;;19.30;4.20;;;;;;;;;;1790952;78;26285;-76
2022/11/09 00:10:52;;;;;;;;;;;;;;;;;;1791315;78;26243;-76
2022/11/09 00:13:19;;;;;;;;;;;;;;;;;;1822855;78;26413;-76
2022/11/09 00:15:47;;;;;;;19.20;3.60;;;;;;;;;;1823086;78;24284;-77
2022/11/09 00:18:20;;;;;;;15.00;3.95;;;;;;;;;;1790633;78;26334;-77
2022/11/09 00:20:50;;;;;;;20.70;4.50;;;;;;;;;;1826005;78;26293;-77
2022/11/09 00:23:19;;;;;;;22.80;4.60;;;;;;;;;;1827733;78;26295;-77
2022/11/09 00:25:48;;;;;;;16.73;4.23;;;;;;;;;;1827909;78;26224;-76
2022/11/09 00:28:17;;;;;;;23.70;4.60;;;;;;;;;;1827674;78;26234;-77
2022/11/09 00:30:45;;;;;;;19.20;4.50;;;;;;;;;;1798312;78;27056;-77
2022/11/09 00:33:14;;;;;;;22.20;5.10;;;;;;;;;;1798075;78;26885;-76
2022/11/09 00:35:42;;;;;;;20.70;4.00;;;;;;;;;;1797923;78;26246;-77
2022/11/09 00:38:13;;;;;;;23.23;4.10;;;;;;;;;;1784044;79;26296;-77
2022/11/09 00:40:41;;;;;;;19.25;4.05;;;;;;;;;;1827820;77;26224;-77
2022/11/09 00:43:10;;;;;;;23.30;4.10;;;;;;;;;;1827600;78;26191;-76
2022/11/09 00:45:40;;;;;;;16.95;4.20;;;;;;;;;;1798186;78;27136;-76
2022/11/09 00:48:08;;;;;;;17.50;4.30;;;;;;;;;;1798047;78;26686;-76
2022/11/09 00:50:39;;;;;;;19.00;4.25;;;;;;;;;;1827835;78;26211;-77
2022/11/09 00:53:07;;;;;;;14.67;3.30;;;;;;;;;;1827731;78;26715;-77
2022/11/09 00:55:35;;;;;;;18.45;4.05;;;;;;;;;;1827560;78;26231;-76
2022/11/09 00:58:05;;;;;;;17.60;4.05;;;;;;;;;;1827703;78;26227;-75
2022/11/09 01:00:33;;;;;;;20.50;4.30;;;;;;;;;;1798374;78;24161;-77
2022/11/09 01:03:00;;;;;;;;;;;;;;;;;;1826603;78;26263;-77
2022/11/09 01:05:28;;;;;;;;;;;;;;;;;;1825768;77;24246;-77
2022/11/09 01:07:57;;;;;;;18.40;4.20;;;;;;;;;;1826248;78;24154;-77
2022/11/09 01:10:25;;;;;;;20.80;4.50;;;;;;;;;;1825876;78;26827;-76
2022/11/09 01:12:54;;;;;;;19.80;4.00;;;;;;;;;;1794745;78;26219;-77
2022/11/09 01:15:24;;;;;;;16.30;4.05;;;;;;;;;;1826026;78;26349;-77
2022/11/09 01:17:53;;;;;;;17.00;4.05;;;;;;;;;;1825719;78;26305;-77
2022/11/09 01:20:21;;;;;;;;;;;;;;;;;;1795977;78;26232;-76
2022/11/09 01:22:48;;;;;;;;;;;;;;;;;;1812311;79;26231;-77
2022/11/09 01:25:17;;;;;;;20.90;4.90;;;;;;;;;;1811983;79;24187;-77
2022/11/09 01:27:46;;;;;;;16.60;4.17;;;;;;;;;;1827310;78;23921;-77
2022/11/09 01:30:15;;;;;;;17.77;4.47;;;;;;;;;;1796172;78;26357;-77
2022/11/09 01:32:42;;;;;;;;;;;;;;;;;;1796705;78;24650;-77
2022/11/09 01:35:11;;;;;;;17.35;4.15;;;;;;;;;;1812561;79;23226;-77
2022/11/09 01:37:40;;;;;;;22.60;4.30;;;;;;;;;;1782884;79;23696;-76
2022/11/09 01:40:11;;;;;;;16.87;3.50;;;;;;;;;;1812163;79;24165;-77
2022/11/09 01:42:40;;;;;;;17.60;4.80;;;;;;;;;;1812496;78;26338;-76
2022/11/09 01:45:07;;;;;;;;;;;;;;;;;;1826303;78;26768;-77
2022/11/09 01:47:34;;;;;;;;;;;;;;;;;;1812774;79;24104;-76
2022/11/09 01:50:01;;;;;;;;;;;;;;;;;;1812450;79;23141;-76
2022/11/09 01:52:29;;;;;;;;;;;;;;;;;;1813287;79;23518;-76
2022/11/09 01:54:59;;;;;;;16.90;4.30;;;;;;;;;;1813154;79;22915;-75
2022/11/09 01:57:30;;;;;;;18.25;4.65;;;;;;;;;;1812774;79;24181;-76
2022/11/09 02:00:01;;;;;;;19.20;4.00;;;;;;;;;;1826402;78;24833;-77
2022/11/09 02:02:30;;;;;;;19.60;3.95;;;;;;;;;;1826350;78;24859;-77
2022/11/09 02:05:00;;;;;;;19.50;4.00;;;;;;;;;;1826282;78;24177;-77
2022/11/09 02:07:29;;;;;;;17.57;3.93;;;;;;;;;;1826228;78;24283;-76
2022/11/09 02:10:00;;;;;;;20.60;4.70;;;;;;;;;;1826759;78;22137;-77
2022/11/09 02:12:31;;;;;;;16.15;3.80;;;;;;;;;;1826461;78;22140;-77
2022/11/09 02:14:59;;;;;;;21.50;3.70;;;;;;;;;;1826819;78;23129;-77
2022/11/09 02:17:26;;;;;;;;;;;;;;;;;;1826877;78;24236;-77
2022/11/09 02:19:56;;;;;;;16.17;3.43;;;;;;;;;;1826353;78;22388;-76
2022/11/09 02:22:41;;;;;;;17.00;3.60;;;;;;;;;;1826100;78;26862;-77
2022/11/09 02:25:12;;;;;;;16.90;3.15;;;;;;;;;;1826014;78;23157;-77
2022/11/09 02:27:39;;;;;;;;;;;;;;;;;;1827921;78;23168;-77
2022/11/09 02:30:10;;;;;;;23.60;3.50;;;;;;;;;;1826649;78;22125;-77
2022/11/09 02:32:40;;;;;;;22.20;3.97;;;;;;;;;;1826033;78;24546;-77
2022/11/09 02:35:09;;;;;;;15.40;3.10;;;;;;;;;;1826944;78;24220;-77
2022/11/09 02:37:40;;;;;;;18.30;3.80;;;;;;;;;;1826468;78;23169;-77
2022/11/09 02:40:13;;;;;;;17.95;3.95;;;;;;;;;;1826349;78;23165;-77
2022/11/09 02:42:40;;;;;;;;;;;;;;;;;;1827140;77;23213;-77
2022/11/09 02:45:07;;;;;;;;;;;;;;;;;;1812979;79;22199;-77
2022/11/09 02:47:37;;;;;;;16.55;3.25;;;;;;;;;;1812820;79;21845;-76
2022/11/09 02:50:07;;;;;;;19.70;4.10;;;;;;;;;;1812668;79;24222;-77
2022/11/09 02:52:34;;;;;;;;;;;;;;;;;;1812925;79;23293;-76
2022/11/09 02:55:03;;;;;;;19.70;3.90;;;;;;;;;;1812707;79;24627;-77
2022/11/09 02:57:32;;;;;;;17.70;3.60;;;;;;;;;;1812850;79;24072;-77
2022/11/09 03:00:00;;;;;;;16.30;3.70;;;;;;;;;;1813282;79;23180;-77
2022/11/09 03:02:30;;;;;;;12.60;2.80;;;;;;;;;;1826242;78;22992;-77
2022/11/09 03:04:58;;;;;;;12.00;2.80;;;;;;;;;;1826730;78;23134;-77
2022/11/09 03:07:28;;;;;;;10.50;2.10;;;;;;;;;;1826938;78;22091;-77
2022/11/09 03:09:58;;;;;;;12.80;2.50;;;;;;;;;;1826757;78;26263;-76
2022/11/09 03:12:31;;;;;;;9.23;2.47;;;;;;;;;;1826495;78;26657;-76
2022/11/09 03:15:01;;;;;;;10.30;2.23;;;;;;;;;;1826331;78;26266;-77
2022/11/09 03:17:32;;;;;;;6.93;1.70;;;;;;;;;;1826248;78;26279;-77
2022/11/09 03:20:00;;;;;;;5.00;1.60;;;;;;;;;;1797235;78;26885;-77
2022/11/09 03:22:31;;;;;;;10.10;2.40;;;;;;;;;;1796640;78;26275;-76
2022/11/09 03:24:59;;;;;;;7.17;2.10;;;;;;;;;;1795487;78;26270;-77
2022/11/09 03:27:28;;;;;;;12.13;2.30;;;;;;;;;;1796116;78;26341;-77
2022/11/09 03:29:56;;;;;;;9.30;2.87;;;;;;;;;;1795865;78;26419;-77
2022/11/09 03:32:25;;;;;;;12.40;3.10;;;;;;;;;;1795961;78;26327;-77
2022/11/09 03:34:55;;;;;;;12.57;2.67;;;;;;;;;;1825939;78;26770;-77
2022/11/09 03:37:24;;;;;;;13.87;2.33;;;;;;;;;;1826412;78;26282;-77
2022/11/09 03:39:52;;;;;;;14.00;2.57;;;;;;;;;;1782494;79;26228;-76
2022/11/09 03:42:21;;;;;;;15.40;3.70;;;;;;;;;;1782714;79;26396;-76
2022/11/09 03:44:49;;;;;;;13.63;3.33;;;;;;;;;;1825848;78;26351;-76
2022/11/09 03:47:20;;;;;;;15.77;3.17;;;;;;;;;;1825748;78;26413;-76
2022/11/09 03:49:48;;;;;;;13.10;3.10;;;;;;;;;;1828010;78;26269;-77
2022/11/09 03:52:17;;;;;;;17.90;3.47;;;;;;;;;;1827744;78;26184;-77
2022/11/09 03:54:45;;;;;;;18.67;3.23;;;;;;;;;;1827660;78;26247;-76
2022/11/09 03:57:14;;;;;;;13.63;3.27;;;;;;;;;;1797984;78;27057;-77
2022/11/09 03:59:43;;;;;;;14.97;3.07;;;;;;;;;;1827827;78;26392;-76
2022/11/09 04:02:13;;;;;;;15.23;2.87;;;;;;;;;;1827801;78;26274;-77
2022/11/09 04:04:43;;;;;;;16.50;3.67;;;;;;;;;;1827314;78;26361;-76
2022/11/09 04:07:11;;;;;;;17.93;2.90;;;;;;;;;;1827682;78;26247;-74
2022/11/09 04:09:40;;;;;;;14.40;3.03;;;;;;;;;;1827820;78;26227;-74
2022/11/09 04:12:09;;;;;;;13.73;2.77;;;;;;;;;;1827777;78;26236;-74
2022/11/09 04:14:38;;;;;;;14.70;3.57;;;;;;;;;;1827290;78;26356;-73
2022/11/09 04:17:07;;;;;;;15.80;3.33;;;;;;;;;;1825820;78;26422;-74
2022/11/09 04:19:35;;;;;;;16.43;2.97;;;;;;;;;;1826213;78;26733;-74
2022/11/09 04:22:05;;;;;;;16.00;2.50;;;;;;;;;;1826053;78;27449;-74
2022/11/09 04:24:34;;;;;;;13.80;3.10;;;;;;;;;;1826175;78;24279;-74
2022/11/09 04:27:02;;;;;;;15.50;3.50;;;;;;;;;;1826008;78;26223;-74
2022/11/09 04:29:31;;;;;;;13.47;3.00;;;;;;;;;;1826150;78;26765;-73
2022/11/09 04:31:59;;;;;;;13.17;2.47;;;;;;;;;;1825634;78;26791;-74
2022/11/09 04:34:28;;;;;;;13.77;2.97;;;;;;;;;;1826064;78;26287;-74
2022/11/09 04:36:56;;;;;;;11.27;2.57;;;;;;;;;;1795575;78;26569;-73
2022/11/09 04:39:24;;;;;;;10.97;2.40;;;;;;;;;;1826138;78;26267;-75
2022/11/09 04:41:53;;;;;;;9.95;2.20;;;;;;;;;;1825660;77;26773;-74
2022/11/09 04:44:22;;;;;;;10.25;2.40;;;;;;;;;;1825882;78;26846;-74
2022/11/09 04:46:51;;;;;;;13.83;2.83;;;;;;;;;;1825867;78;26757;-73
2022/11/09 04:49:20;;;;;;;11.23;1.93;;;;;;;;;;1826031;78;26349;-73
2022/11/09 04:51:48;;;;;;;8.60;2.20;;;;;;;;;;1825822;78;26434;-73
2022/11/09 04:54:18;;;;;;;11.33;2.17;;;;;;;;;;1796071;78;27422;-74
2022/11/09 04:56:47;;;;;;;13.43;2.47;;;;;;;;;;1825575;78;26271;-74
2022/11/09 04:59:16;;;;;;;10.40;2.33;;;;;;;;;;1826063;78;27308;-73
2022/11/09 05:01:45;;;;;;;11.50;2.53;;;;;;;;;;1725972;79;611115;-77
2022/11/09 05:04:14;;;;;;;8.53;2.47;;;;;;;;;;1730257;83;26314;-77
2022/11/09 05:06:44;;;;;;;9.67;2.00;;;;;;;;;;1730173;83;26415;-77
2022/11/09 05:09:12;;;;;;;9.30;2.10;;;;;;;;;;1731264;81;26326;-77
2022/11/09 05:11:41;;;;;;;7.93;2.20;;;;;;;;;;1704202;84;26364;-77
2022/11/09 05:14:09;;;;;;;8.90;1.97;;;;;;;;;;1705568;83;27428;-77
2022/11/09 05:16:38;;;;;;;6.97;2.20;;;;;;;;;;1732587;82;26758;-77
2022/11/09 05:19:06;;;;;;;7.30;1.93;;;;;;;;;;1732542;82;26977;-77
2022/11/09 05:21:35;;;;;;;7.53;1.83;;;;;;;;;;1732329;82;26789;-78
2022/11/09 05:24:04;;;;;;;10.03;2.00;;;;;;;;;;1705834;83;24317;-77
2022/11/09 05:26:33;;;;;;;9.00;1.70;;;;;;;;;;1732331;83;26540;-77
2022/11/09 05:29:03;;;;;;;6.83;1.80;;;;;;;;;;1732670;82;26392;-77
2022/11/09 05:31:31;;;;;;;7.67;1.60;;;;;;;;;;1732346;82;26357;-77
2022/11/09 05:34:03;;;;;;;5.77;1.50;;;;;;;;;;1732417;82;27496;-76
2022/11/09 05:36:32;;;;;;;4.93;1.63;;;;;;;;;;1734151;82;26274;-77
2022/11/09 05:39:01;;;;;;;4.63;1.40;;;;;;;;;;1734393;82;26716;-77
2022/11/09 05:41:30;;;;;;;4.57;1.13;;;;;;;;;;1734219;82;27104;-77
2022/11/09 05:43:58;;;;;;;5.30;1.60;;;;;;;;;;1679971;84;26266;-77
2022/11/09 05:46:27;;;;;;;5.10;1.97;;;;;;;;;;1734170;83;26272;-77
2022/11/09 05:48:56;;;;;;;4.50;1.40;;;;;;;;;;1705960;84;26278;-77
2022/11/09 05:51:25;;;;;;;8.70;1.85;;;;;;;;;;1734205;83;26269;-77
2022/11/09 05:53:54;;;;;;;4.25;1.30;;;;;;;;;;1705983;84;26247;-77
2022/11/09 05:56:23;;;;;;;5.60;1.10;;;;;;;;;;1734106;83;24170;-77
2022/11/09 05:58:52;;;;;;;4.85;1.50;;;;;;;;;;1706026;84;26352;-77
2022/11/09 06:01:19;;;;;;;;;;;;;;;;;;1733828;83;27362;-77
2022/11/09 06:03:47;;;;;;;5.05;1.20;;;;;;;;;;1704242;84;24225;-77
2022/11/09 06:06:16;;;;;;;6.60;1.10;;;;;;;;;;1732428;83;26267;-77
2022/11/09 06:08:46;;;;;;;6.20;1.40;;;;;;;;;;1705913;80;26318;-77
2022/11/09 06:11:15;;;;;;;11.00;1.67;;;;;;;;;;1734097;82;26718;-77
2022/11/09 06:13:42;;;;;;;;;;;;;;;;;;1734734;82;24232;-77
2022/11/09 06:16:10;;;;;;;4.00;1.30;;;;;;;;;;1706476;84;24716;-77
2022/11/09 06:18:37;;;;;;;;;;;;;;;;;;1734446;83;24667;-77
2022/11/09 06:21:04;;;;;;;;;;;;;;;;;;1706561;84;24170;-77
2022/11/09 06:23:31;;;;;;;;;;;;;;;;;;1734908;83;24136;-77
2022/11/09 06:25:58;;;;;;;;;;;;;;;;;;1707972;84;24646;-76
2022/11/09 06:28:25;;;;;;;;;;;;;;;;;;1734594;83;24145;-77
2022/11/09 06:30:55;;;;;;;3.83;1.27;;;;;;;;;;1707642;84;24577;-77
2022/11/09 06:33:23;;;;;;;6.40;1.70;;;;;;;;;;1734183;83;26857;-77
2022/11/09 06:35:52;;;;;;;6.40;1.60;;;;;;;;;;1707283;83;26325;-78
2022/11/09 06:38:22;;;;;;;5.10;1.30;;;;;;;;;;1734608;82;24288;-77
2022/11/09 06:40:52;;;;;;;6.80;1.50;;;;;;;;;;1734296;82;24199;-76
2022/11/09 06:43:21;;;;;;;10.17;1.80;;;;;;;;;;1734421;82;23627;-76
2022/11/09 06:45:50;;;;;;;6.47;1.70;;;;;;;;;;1734254;82;22114;-76
2022/11/09 06:48:19;;;;;;;4.87;1.10;;;;;;;;;;1733643;82;26371;-77
2022/11/09 06:50:49;;;;;;;7.90;1.90;;;;;;;;;;1732673;83;26394;-76
2022/11/09 06:53:17;;;;;;;4.03;1.40;;;;;;;;;;1732653;82;24290;-76
2022/11/09 06:55:49;;;;;;;4.60;1.57;;;;;;;;;;1732302;82;26299;-76
2022/11/09 06:58:18;;;;;;;7.83;1.63;;;;;;;;;;1734090;82;26332;-77
2022/11/09 07:00:47;;;;;;;5.90;1.27;;;;;;;;;;1734351;82;27167;-77
2022/11/09 07:03:17;;;;;;;5.17;1.90;;;;;;;;;;1659042;84;24300;-77
2022/11/09 07:05:46;;;;;;;4.70;1.80;;;;;;;;;;1734220;83;27141;-77
2022/11/09 07:08:15;;;;;;;6.77;1.63;;;;;;;;;;1706094;84;26236;-77
2022/11/09 07:10:45;;;;;;;4.55;1.30;;;;;;;;;;1723673;81;26293;-77
2022/11/09 07:13:14;;;;;;;6.43;1.83;;;;;;;;;;1680258;84;26333;-77
2022/11/09 07:15:42;;;;;;;4.70;1.40;;;;;;;;;;1733164;83;26272;-77
2022/11/09 07:18:12;;;;;;;7.20;1.53;;;;;;;;;;1732521;82;26950;-77
2022/11/09 07:20:41;;;;;;;5.27;1.70;;;;;;;;;;1732404;82;26807;-76
2022/11/09 07:23:09;;;;;;;5.17;1.30;;;;;;;;;;1732405;83;26410;-76
2022/11/09 07:25:37;;;;;;;4.87;1.53;;;;;;;;;;1732646;82;26381;-77
2022/11/09 07:28:07;;;;;;;5.30;1.23;;;;;;;;;;1732555;82;26311;-76
2022/11/09 07:30:37;;;;;;;3.20;1.13;;;;;;;;;;1732651;83;26408;-77
2022/11/09 07:33:07;;;;;;;4.47;1.43;;;;;;;;;;1734397;82;26385;-77
2022/11/09 07:35:35;;;;;;;4.30;1.37;;;;;;;;;;1705644;84;26301;-77
2022/11/09 07:38:04;;;;;;;6.40;1.47;;;;;;;;;;1734161;83;26281;-76
2022/11/09 07:40:33;;;;;;;6.10;1.40;;;;;;;;;;1734257;82;26270;-77
2022/11/09 07:43:04;;;;;;;2.73;1.10;;;;;;;;;;1734103;82;26263;-76
2022/11/09 07:45:33;;;;;;;3.70;1.30;;;;;;;;;;1734181;82;26262;-76
2022/11/09 07:48:03;;;;;;;4.27;1.20;;;;;;;;;;1734225;82;26327;-76
2022/11/09 07:50:33;;;;;;;4.37;1.27;;;;;;;;;;1746544;82;26275;-76
2022/11/09 07:53:02;;;;;;;2.27;1.30;;;;;;;;;;1734205;83;26279;-76
2022/11/09 07:55:31;;;;;;;2.07;1.20;;;;;;;;;;1734061;82;26278;-77
2022/11/09 07:58:00;;;;;;;3.50;1.40;;;;;;;;;;1734472;82;26358;-77
2022/11/09 08:00:31;;;;;;;2.40;1.20;;;;;;;;;;1734199;82;26254;-77
2022/11/09 08:02:59;;;;;;;2.47;0.97;;;;;;;;;;1746649;81;24860;-76
2022/11/09 08:05:28;;;;;;;3.17;1.27;;;;;;;;;;1734241;82;26208;-77
2022/11/09 08:07:58;;;;;;;3.80;1.40;;;;;;;;;;1734367;82;26258;-76
2022/11/09 08:10:27;;;;;;;4.50;1.33;;;;;;;;;;1734300;80;26289;-77
2022/11/09 08:12:57;;;;;;;3.50;1.40;;;;;;;;;;1734246;82;26356;-77
2022/11/09 08:15:26;;;;;;;4.33;1.50;;;;;;;;;;1734215;82;26803;-77
2022/11/09 08:17:57;;;;;;;2.95;1.10;;;;;;;;;;1734393;83;26871;-77
2022/11/09 08:20:26;;;;;;;4.40;1.23;;;;;;;;;;1734560;82;21730;-77
2022/11/09 08:22:54;;;;;;;3.37;1.20;;;;;;;;;;1734254;83;24186;-78
2022/11/09 08:25:25;;;;;;;2.83;1.20;;;;;;;;;;1733691;82;26917;-77
2022/11/09 08:27:55;;;;;;;4.00;1.20;;;;;;;;;;1732566;82;26306;-77
2022/11/09 08:30:25;;;;;;;4.33;1.20;;;;;;;;;;1732518;83;26926;-77
2022/11/09 08:32:54;;;;;;;4.47;1.47;;;;;;;;;;1732299;82;26854;-77
2022/11/09 08:35:24;;;;;;;4.20;1.50;;;;;;;;;;1732389;83;26334;-77
2022/11/09 08:37:54;;;;;;;2.47;1.53;;;;;;;;;;1734333;82;26318;-78
2022/11/09 08:40:23;;;;;;;6.93;1.80;;;;;;;;;;1734211;82;26270;-78
2022/11/09 08:42:52;;;;;;;4.85;1.10;;;;;;;;;;1734011;83;26854;-78
2022/11/09 08:45:19;;;;;;;;;;;;;;;;;;1734567;82;23147;-78
2022/11/09 08:47:47;;;;;;;3.35;1.15;;;;;;;;;;1706324;84;23137;-78
2022/11/09 08:50:14;;;;;;;;;;;;;;;;;;1734628;83;24907;-78
2022/11/09 08:52:43;;;;;;;4.20;1.50;;;;;;;;;;1706392;84;23125;-78
2022/11/09 08:55:12;;;;;;;;;;;;;;;;;;1734927;83;22086;-78
2022/11/09 08:57:41;;;;;;;3.40;1.60;;;;;;;;;;1706600;84;21848;-78
2022/11/09 09:00:11;;;;;;;3.80;1.40;;;;;;;;;;1680496;84;22097;-78
2022/11/09 09:02:40;;;;;;;3.77;1.27;;;;;;;;;;1746410;82;26230;-78
2022/11/09 09:05:08;;;;;;;2.93;1.20;;;;;;;;;;1734146;82;26329;-78
2022/11/09 09:07:37;;;;;;;3.70;1.57;;;;;;;;;;1680009;84;26334;-78
2022/11/09 09:10:07;;;;;;;3.73;1.50;;;;;;;;;;1734270;80;26234;-77
2022/11/09 09:12:36;;;;;;;5.37;1.70;;;;;;;;;;1705916;84;27127;-77
2022/11/09 09:15:06;;;;;;;5.90;1.80;;;;;;;;;;1734396;83;23119;-78
2022/11/09 09:17:35;;;;;;;;;;;;;;;;;;1706215;84;23115;-77
2022/11/09 09:20:04;;;;;;;3.40;1.70;;;;;;;;;;1728508;83;24158;-78
2022/11/09 09:22:32;;;;;;;;;;;;;;;;;;1706150;84;25016;-79
2022/11/09 09:24:59;;;;;;;;;;;;;;;;;;1734477;83;23117;-78
2022/11/09 09:27:28;;;;;;;;;;;;;;;;;;1707920;84;24164;-78
2022/11/09 09:29:55;;;;;;;;;;;;;;;;;;1734713;83;22624;-79
2022/11/09 09:32:22;;;;;;;;;;;;;;;;;;1708155;84;22072;-78
2022/11/09 09:34:49;;;;;;;;;;;;;;;;;;1733305;83;24074;-77
2022/11/09 09:37:16;;;;;;;;;;;;;;;;;;1705828;84;24487;-77
2022/11/09 09:39:43;;;;;;;;;;;;;;;;;;1732563;83;26275;-78
2022/11/09 09:42:10;;;;;;;;;;;;;;;;;;1680011;84;26310;-77
2022/11/09 09:44:37;;;;;;;;;;;;;;;;;;1733449;83;22608;-77
2022/11/09 09:47:04;;;;;;;;;;;;;;;;;;1706750;84;22779;-78
2022/11/09 09:49:31;;;;;;;;;;;;;;;;;;1733106;83;23075;-77
2022/11/09 09:52:01;;;;;;;5.10;1.40;;;;;;;;;;1706243;84;24227;-77
2022/11/09 09:54:28;;;;;;;;;;;;;;;;;;1721727;83;26389;-76
2022/11/09 09:56:59;;;;;;;5.20;1.50;;;;;;;;;;1732509;83;23933;-76
2022/11/09 09:59:26;;;;;;;;;;;;;;;;;;1706889;84;23455;-76
2022/11/09 10:01:56;;;;;;;4.40;1.20;;;;;;;;;;1733914;83;24415;-77
2022/11/09 10:04:23;;;;;;;;;;;;;;;;;;1705074;84;22117;-77
2022/11/09 10:07:10;;;;;;;7.40;1.90;;;;;;;;;;1732596;83;22028;-76
2022/11/09 10:09:37;;;;;;;;;;;;;;;;;;1704381;84;22164;-76
2022/11/09 10:12:04;;;;;;;;;;;;;;;;;;1707126;83;22849;-76
2022/11/09 10:14:31;;;;;;;;;;;;;;;;;;1705114;84;21721;-76
2022/11/09 10:17:02;;;;;;;4.40;1.60;;;;;;;;;;1704428;84;24540;-76
2022/11/09 10:19:34;;;;;;;5.70;1.60;;;;;;;;;;1734080;82;26285;-76
2022/11/09 10:22:05;;;;;;;5.80;1.30;;;;;;;;;;1734802;83;26329;-76
2022/11/09 10:24:37;;;;;;;6.60;2.10;;;;;;;;;;1734582;83;22318;-76
2022/11/09 10:27:08;;;;;;;5.70;2.37;;;;;;;;;;1734168;83;26213;-76
2022/11/09 10:29:38;;;;;;;3.60;1.53;;;;;;;;;;1707251;84;26857;-74
2022/11/09 10:32:06;;;;;;;;;;;;;;;;;;1734133;83;26691;-74
2022/11/09 10:34:32;;;;;;;;;;;;;;;;;;1706895;84;25085;-74
2022/11/09 10:37:00;;;;;;;;;;;;;;;;;;1735573;83;23603;-74
2022/11/09 10:39:27;;;;;;;;;;;;;;;;;;1707892;84;23053;-75
2022/11/09 10:41:54;;;;;;;;;;;;;;;;;;1733636;83;24127;-74
2022/11/09 10:44:21;;;;;;;;;;;;;;;;;;1730932;83;23510;-75
2022/11/09 10:46:48;;;;;;;;;;;;;;;;;;1730681;83;24097;-75
2022/11/09 10:49:15;;;;;;;;;;;;;;;;;;1730367;83;26248;-74
2022/11/09 10:51:42;;;;;;;;;;;;;;;;;;1730474;83;24135;-75
2022/11/09 10:54:09;;;;;;;;;;;;;;;;;;1730646;83;23101;-74
2022/11/09 10:56:36;;;;;;;;;;;;;;;;;;1729959;83;24076;-74
2022/11/09 10:59:03;;;;;;;;;;;;;;;;;;1730489;83;23071;-74
2022/11/09 11:01:30;;;;;;;;;;;;;;;;;;1731344;83;24176;-75
2022/11/09 11:03:57;;;;;;;;;;;;;;;;;;1731247;83;22990;-75
2022/11/09 11:06:24;;;;;;;;;;;;;;;;;;1730708;83;22390;-75
2022/11/09 11:08:54;;;;;;;8.10;1.90;;;;;;;;;;1730205;83;23726;-74
2022/11/09 11:11:25;;;;;;;7.00;2.00;;;;;;;;;;1726523;80;26323;-75
2022/11/09 11:13:57;;;;;;;9.40;2.80;;;;;;;;;;1731976;83;23103;-75
2022/11/09 11:16:24;;;;;;;;;;;;;;;;;;1723501;83;22087;-74
2022/11/09 11:18:53;;;;;;;9.90;3.80;;;;;;;;;;1734616;83;24327;-75
2022/11/09 11:21:20;;;;;;;;;;;;;;;;;;1705713;84;24182;-75
2022/11/09 11:23:48;;;;;;;;;;;;;;;;;;1733260;83;21671;-75
2022/11/09 11:26:26;;;;;;;9.60;5.00;;;;;;;;;;1705719;84;22193;-75
2022/11/09 11:28:58;;;;;;;8.10;4.30;;;;;;;;;;1733270;82;26308;-74
2022/11/09 11:31:26;;;;;;;6.37;3.10;;;;;;;;;;1733409;83;25400;-75
2022/11/09 11:33:53;;;;;;;;;;;;;;;;;;1678935;84;23192;-75
2022/11/09 11:36:20;;;;;;;;;;;;;;;;;;1733145;83;22718;-74
2022/11/09 11:38:51;;;;;;;7.85;2.30;;;;;;;;;;1705523;84;23165;-74
2022/11/09 11:41:29;;;;;;;5.90;2.45;;;;;;;;;;1732385;83;26356;-74
2022/11/09 11:44:00;;;;;;;9.50;2.80;;;;;;;;;;1703946;84;22112;-74
2022/11/09 11:46:30;;;;;;;5.60;2.10;;;;;;;;;;1732302;83;26289;-75
2022/11/09 11:49:03;;;;;;;7.30;2.60;;;;;;;;;;1703033;84;26464;-74
2022/11/09 11:51:35;;;;;;;6.85;2.75;;;;;;;;;;1732192;83;26269;-74
2022/11/09 11:54:07;;;;;;;9.35;2.80;;;;;;;;;;1732582;82;26333;-74
2022/11/09 11:56:39;;;;;;;8.60;2.90;;;;;;;;;;1732019;83;23306;-75
2022/11/09 11:59:12;;;;;;;5.85;2.50;;;;;;;;;;1732458;83;26318;-74
2022/11/09 12:01:44;;;;;;;6.45;2.10;;;;;;;;;;1704395;84;26426;-74
2022/11/09 12:04:16;;;;;;;4.97;2.40;;;;;;;;;;1731928;83;26278;-74
2022/11/09 12:06:49;;;;;;;8.40;2.20;;;;;;;;;;1703821;84;26322;-74
2022/11/09 12:09:22;;;;;;;6.15;2.00;;;;;;;;;;1732291;83;27387;-75
2022/11/09 12:11:54;;;;;;;4.90;2.10;;;;;;;;;;1732084;81;26334;-74
2022/11/09 12:14:26;;;;;;;6.23;2.30;;;;;;;;;;1732108;83;26739;-74
2022/11/09 12:16:56;;;;;;;4.80;2.35;;;;;;;;;;1732478;83;26330;-74
2022/11/09 12:19:29;;;;;;;5.20;2.30;;;;;;;;;;1705159;84;26321;-74
2022/11/09 12:22:00;;;;;;;5.60;2.13;;;;;;;;;;1732001;83;26277;-74
2022/11/09 12:24:30;;;;;;;2.80;1.60;;;;;;;;;;1704042;84;24773;-74
2022/11/09 12:27:02;;;;;;;6.33;2.10;;;;;;;;;;1732420;83;24167;-73
2022/11/09 12:29:33;;;;;;;6.50;2.20;;;;;;;;;;1744960;81;23217;-74
2022/11/09 12:32:05;;;;;;;3.35;1.70;;;;;;;;;;1732402;83;24219;-74
2022/11/09 12:34:35;;;;;;;5.33;2.30;;;;;;;;;;1705790;84;24296;-74
2022/11/09 12:37:05;;;;;;;6.95;2.55;;;;;;;;;;1732433;83;23168;-74
2022/11/09 12:39:36;;;;;;;4.30;2.37;;;;;;;;;;1732658;83;23270;-75
2022/11/09 12:42:06;;;;;;;8.85;2.70;;;;;;;;;;1732798;82;26779;-72
2022/11/09 12:44:36;;;;;;;6.53;2.33;;;;;;;;;;1732335;82;26382;-72
2022/11/09 12:47:07;;;;;;;5.93;2.50;;;;;;;;;;1731998;83;26261;-72
2022/11/09 12:49:36;;;;;;;4.07;2.17;;;;;;;;;;1704057;84;26333;-72
2022/11/09 12:52:03;;;;;;;;;;;;;;;;;;1732267;83;24288;-72
2022/11/09 12:54:31;;;;;;;5.50;2.30;;;;;;;;;;1704241;84;26333;-72
2022/11/09 12:57:03;;;;;;;4.70;2.20;;;;;;;;;;1732152;83;24323;-72
2022/11/09 12:59:35;;;;;;;5.25;2.05;;;;;;;;;;1733688;82;24642;-72
2022/11/09 13:02:05;;;;;;;3.83;1.97;;;;;;;;;;1732528;83;24196;-72
2022/11/09 13:04:33;;;;;;;7.50;2.00;;;;;;;;;;1732272;82;27095;-72
2022/11/09 13:07:00;;;;;;;;;;;;;;;;;;1677850;84;24249;-72
2022/11/09 13:09:29;;;;;;;6.30;2.20;;;;;;;;;;1705423;84;23191;-72
2022/11/09 13:11:58;;;;;;;5.10;2.10;;;;;;;;;;1732703;81;24243;-72
2022/11/09 13:14:30;;;;;;;6.10;2.20;;;;;;;;;;1732269;82;24310;-73
2022/11/09 13:16:59;;;;;;;4.53;1.90;;;;;;;;;;1732010;83;23248;-73
2022/11/09 13:19:26;;;;;;;;;;;;;;;;;;1732986;82;22093;-73
2022/11/09 13:21:55;;;;;;;5.60;2.20;;;;;;;;;;1703957;84;23158;-73
2022/11/09 13:24:51;;;;;;;5.50;2.30;;;;;;;;;;1705573;83;26747;-73
2022/11/09 13:27:38;;;;;;;4.50;2.30;;;;;;;;;;1691708;84;26877;-72
2022/11/09 13:30:24;;;;;;;5.57;2.37;;;;;;;;;;1732226;83;23155;-73
2022/11/09 13:33:12;;;;;;;5.03;2.07;;;;;;;;;;1704291;83;26710;-74
2022/11/09 13:36:17;;;;;;;4.90;2.40;;;;;;;;;;1732357;82;27401;-73
2022/11/09 13:38:48;;;;;;;6.13;2.40;;;;;;;;;;1732440;83;26793;-74
2022/11/09 13:41:44;;;;;;;4.85;2.30;;;;;;;;;;1734072;82;26854;-74
2022/11/09 13:44:17;;;;;;;3.63;2.30;;;;;;;;;;1694938;84;26272;-75
2022/11/09 13:46:48;;;;;;;6.53;2.60;;;;;;;;;;1734029;83;23223;-73
2022/11/09 13:49:34;;;;;;;4.60;2.10;;;;;;;;;;1734122;82;24211;-73
2022/11/09 13:52:02;;;;;;;5.25;2.20;;;;;;;;;;1732964;82;23221;-74
2022/11/09 13:54:33;;;;;;;6.90;2.53;;;;;;;;;;1732317;82;22227;-73
2022/11/09 13:57:02;;;;;;;4.80;1.80;;;;;;;;;;1678200;84;26461;-73
2022/11/09 13:59:33;;;;;;;3.97;1.57;;;;;;;;;;1732318;83;26334;-73
2022/11/09 14:02:02;;;;;;;5.15;2.25;;;;;;;;;;1744796;81;22810;-73
2022/11/09 14:04:32;;;;;;;4.83;2.30;;;;;;;;;;1732697;82;24240;-73
2022/11/09 14:07:03;;;;;;;7.40;2.80;;;;;;;;;;1705377;84;26613;-73
2022/11/09 14:09:34;;;;;;;3.27;2.07;;;;;;;;;;1732550;83;26259;-73
2022/11/09 14:12:18;;;;;;;4.53;2.10;;;;;;;;;;1703990;81;26402;-73
2022/11/09 14:14:51;;;;;;;4.80;2.00;;;;;;;;;;1732412;83;26275;-73
2022/11/09 14:17:22;;;;;;;4.50;2.00;;;;;;;;;;1744494;81;26475;-73
2022/11/09 14:19:53;;;;;;;5.33;2.13;;;;;;;;;;1732202;82;26388;-73
2022/11/09 14:22:22;;;;;;;8.53;3.37;;;;;;;;;;1704029;84;26392;-73
2022/11/09 14:24:50;;;;;;;5.55;3.15;;;;;;;;;;1732528;83;26338;-74
2022/11/09 14:27:20;;;;;;;9.30;3.60;;;;;;;;;;1678091;84;23316;-73
2022/11/09 14:29:47;;;;;;;;;;;;;;;;;;1680814;84;26283;-73
2022/11/09 14:32:27;;;;;;;6.00;3.50;;;;;;;;;;1735037;83;22848;-74
2022/11/09 14:35:10;;;;;;;5.33;3.03;;;;;;;;;;1734779;83;23098;-73
2022/11/09 14:37:43;;;;;;;5.50;2.93;;;;;;;;;;1705969;84;26794;-74
2022/11/09 14:40:12;;;;;;;;;;;;;;;;;;1734682;83;26284;-74
2022/11/09 14:42:40;;;;;;;4.93;2.27;;;;;;;;;;1706146;84;22914;-74
2022/11/09 14:45:15;;;;;;;3.23;1.87;;;;;;;;;;1707289;83;24633;-74
2022/11/09 14:47:44;;;;;;;7.25;2.35;;;;;;;;;;1734107;82;24187;-73
2022/11/09 14:50:18;;;;;;;6.03;2.70;;;;;;;;;;1734091;82;26267;-74
2022/11/09 14:52:48;;;;;;;5.87;2.60;;;;;;;;;;1734066;82;26275;-76
2022/11/09 14:55:17;;;;;;;5.50;2.40;;;;;;;;;;1734032;82;26267;-76
2022/11/09 14:57:46;;;;;;;4.43;2.80;;;;;;;;;;1734137;82;26354;-75
2022/11/09 15:00:29;;;;;;;5.47;2.30;;;;;;;;;;1734062;83;26278;-76
2022/11/09 15:03:00;;;;;;;5.40;2.37;;;;;;;;;;1734126;82;26335;-76
2022/11/09 15:05:49;;;;;;;4.37;2.07;;;;;;;;;;1734095;82;26834;-76
2022/11/09 15:08:19;;;;;;;5.03;2.10;;;;;;;;;;1705733;84;26311;-77
2022/11/09 15:10:51;;;;;;;7.70;2.97;;;;;;;;;;1732568;83;26394;-76
2022/11/09 15:13:22;;;;;;;6.73;2.60;;;;;;;;;;1678142;82;26944;-76
2022/11/09 15:15:53;;;;;;;6.60;2.60;;;;;;;;;;1731578;83;26281;-76